Time;durP1;ratioP1;P1;durP2;ratioP2;P2;SDS_P1;SDS_P2;PMS_P1;PMS_P2;Temp;Humidity;BMP_temperature;BMP_pressure;BME280_temperature;BME280_humidity;BME280_pressure;Samples;Min_cycle;Max_cycle;Signal;HPM_P1;HPM_P2
2021/09/03 00:01:15;;;;;;;11.33;10.17;;;15.50;99.90;;;;;;5128744;27;20187;-37
2021/09/03 00:03:41;;;;;;;11.27;10.00;;;15.50;99.90;;;;;;5128119;27;20283;-37
2021/09/03 00:06:07;;;;;;;10.10;9.10;;;15.40;99.90;;;;;;5126979;27;20227;-37
2021/09/03 00:08:32;;;;;;;11.20;9.97;;;15.30;99.90;;;;;;5125498;27;20222;-37
2021/09/03 00:10:58;;;;;;;10.80;9.70;;;15.30;99.90;;;;;;5128514;27;20524;-36
2021/09/03 00:13:26;;;;;;;9.90;8.80;;;15.30;99.90;;;;;;5125708;27;20252;-36
2021/09/03 00:15:52;;;;;;;11.00;9.87;;;15.30;99.90;;;;;;5123869;27;20194;-37
2021/09/03 00:18:17;;;;;;;11.60;10.47;;;15.30;99.90;;;;;;5126333;27;20421;-36
2021/09/03 00:20:43;;;;;;;11.60;10.50;;;15.30;99.90;;;;;;5125792;27;20429;-36
2021/09/03 00:23:08;;;;;;;11.17;10.03;;;15.30;99.90;;;;;;5117343;27;20207;-37
2021/09/03 00:25:34;;;;;;;11.23;10.17;;;15.20;99.90;;;;;;5125288;27;20217;-37
2021/09/03 00:28:00;;;;;;;12.60;11.30;;;15.20;99.90;;;;;;5127951;27;20606;-37
2021/09/03 00:30:25;;;;;;;13.13;10.53;;;15.10;99.90;;;;;;5128252;27;20186;-37
2021/09/03 00:32:51;;;;;;;11.90;10.70;;;15.10;99.90;;;;;;5127742;27;20581;-37
2021/09/03 00:35:17;;;;;;;11.27;9.97;;;15.10;99.90;;;;;;5128041;27;20673;-37
2021/09/03 00:37:42;;;;;;;12.80;9.67;;;15.00;99.90;;;;;;5116262;27;20682;-37
2021/09/03 00:40:08;;;;;;;11.67;10.47;;;15.00;99.90;;;;;;5127897;27;20191;-37
2021/09/03 00:42:34;;;;;;;11.23;10.10;;;14.90;99.90;;;;;;5127051;27;20588;-37
2021/09/03 00:45:00;;;;;;;13.43;11.03;;;14.90;99.90;;;;;;5127842;27;20469;-37
2021/09/03 00:47:25;;;;;;;12.50;10.77;;;14.90;99.90;;;;;;5127151;27;20449;-37
2021/09/03 00:49:51;;;;;;;12.10;10.90;;;14.80;99.90;;;;;;5109467;27;20189;-37
2021/09/03 00:52:17;;;;;;;11.90;10.70;;;14.80;99.90;;;;;;5119002;27;20199;-37
2021/09/03 00:54:43;;;;;;;13.53;11.67;;;14.80;99.90;;;;;;5127455;27;20190;-37
2021/09/03 00:57:10;;;;;;;13.87;10.03;;;14.70;99.90;;;;;;5126815;27;20424;-36
2021/09/03 00:59:36;;;;;;;13.60;11.10;;;14.80;99.90;;;;;;5127746;27;20427;-36
2021/09/03 01:02:02;;;;;;;15.63;10.50;;;14.70;99.90;;;;;;5127043;27;20425;-37
2021/09/03 01:04:28;;;;;;;11.10;10.00;;;14.70;99.90;;;;;;5127660;27;20541;-37
2021/09/03 01:06:53;;;;;;;12.23;10.50;;;14.60;99.90;;;;;;5118673;27;20775;-37
2021/09/03 01:09:19;;;;;;;12.00;10.77;;;14.60;99.90;;;;;;5124426;27;20283;-37
2021/09/03 01:11:45;;;;;;;11.67;10.53;;;14.60;99.90;;;;;;5126964;27;20296;-37
2021/09/03 01:14:11;;;;;;;12.67;11.10;;;14.60;99.90;;;;;;5119170;27;20188;-37
2021/09/03 01:16:37;;;;;;;11.40;10.03;;;14.50;99.90;;;;;;5124524;27;20255;-37
2021/09/03 01:19:03;;;;;;;13.67;11.17;;;14.60;99.90;;;;;;5126892;27;20820;-37
2021/09/03 01:21:28;;;;;;;11.57;10.40;;;14.60;99.90;;;;;;5122714;27;20687;-37
2021/09/03 01:23:54;;;;;;;11.40;10.13;;;14.60;99.90;;;;;;5120051;27;20693;-37
2021/09/03 01:26:20;;;;;;;12.87;10.00;;;14.60;99.90;;;;;;5121715;27;20286;-37
2021/09/03 01:28:49;;;;;;;12.90;11.60;;;14.50;99.90;;;;;;5127273;27;20183;-37
2021/09/03 01:31:15;;;;;;;12.80;11.43;;;14.40;99.90;;;;;;5127049;27;20206;-38
2021/09/03 01:33:41;;;;;;;11.80;10.60;;;14.40;99.90;;;;;;5126413;27;20949;-37
2021/09/03 01:36:07;;;;;;;12.00;10.80;;;14.30;99.90;;;;;;5125117;27;20417;-37
2021/09/03 01:38:33;;;;;;;12.30;11.00;;;14.30;99.90;;;;;;5119253;27;20247;-37
2021/09/03 01:40:58;;;;;;;12.43;10.63;;;14.30;99.90;;;;;;5126729;27;20190;-37
2021/09/03 01:43:24;;;;;;;13.83;11.47;;;14.20;99.90;;;;;;5126441;27;20550;-37
2021/09/03 01:45:50;;;;;;;11.90;10.70;;;14.20;99.90;;;;;;5126441;27;20660;-37
2021/09/03 01:48:15;;;;;;;13.27;10.93;;;14.20;99.90;;;;;;5126929;27;20231;-37
2021/09/03 01:50:41;;;;;;;12.57;10.60;;;14.10;99.90;;;;;;5108168;28;20187;-37
2021/09/03 01:53:07;;;;;;;11.83;10.63;;;14.20;99.90;;;;;;5116301;28;20191;-37
2021/09/03 01:55:32;;;;;;;15.70;12.30;;;14.20;99.90;;;;;;5126086;27;20206;-36
2021/09/03 01:57:59;;;;;;;13.43;11.90;;;14.30;99.90;;;;;;5126679;27;20191;-37
2021/09/03 02:00:25;;;;;;;12.93;11.63;;;14.40;99.90;;;;;;5126359;28;20431;-38
2021/09/03 02:02:51;;;;;;;12.90;11.40;;;14.50;99.90;;;;;;5126496;28;20471;-37
2021/09/03 02:05:17;;;;;;;12.87;11.57;;;14.40;99.90;;;;;;5126502;28;20421;-36
2021/09/03 02:07:42;;;;;;;13.07;11.77;;;14.60;99.90;;;;;;5113711;28;20214;-37
2021/09/03 02:10:08;;;;;;;13.00;11.20;;;14.60;99.90;;;;;;5121853;28;20179;-37
2021/09/03 02:12:34;;;;;;;12.03;10.77;;;14.50;99.90;;;;;;5125941;28;20274;-37
2021/09/03 02:15:01;;;;;;;14.23;11.37;;;14.40;99.90;;;;;;5113321;28;20972;-37
2021/09/03 02:17:26;;;;;;;15.27;11.23;;;14.20;99.90;;;;;;5124661;28;20195;-37
2021/09/03 02:19:52;;;;;;;13.47;10.37;;;14.20;99.90;;;;;;5107972;28;20428;-37
2021/09/03 02:22:18;;;;;;;11.97;10.83;;;14.10;99.90;;;;;;5117284;28;20206;-37
2021/09/03 02:24:43;;;;;;;13.20;11.00;;;14.00;99.90;;;;;;5121395;28;20266;-37
2021/09/03 02:27:09;;;;;;;12.77;10.60;;;14.00;99.90;;;;;;5125865;28;20298;-37
2021/09/03 02:29:35;;;;;;;12.03;10.80;;;14.00;99.90;;;;;;5126408;28;20247;-37
2021/09/03 02:32:00;;;;;;;13.17;11.27;;;13.90;99.90;;;;;;5128107;27;20202;-37
2021/09/03 02:34:26;;;;;;;13.13;11.77;;;13.90;99.90;;;;;;5130462;27;20745;-38
2021/09/03 02:36:51;;;;;;;16.70;11.50;;;13.90;99.90;;;;;;5125295;27;20248;-37
2021/09/03 02:39:17;;;;;;;13.43;12.03;;;14.00;99.90;;;;;;5125572;27;20198;-37
2021/09/03 02:41:43;;;;;;;13.20;11.57;;;13.90;99.90;;;;;;5121479;27;20196;-37
2021/09/03 02:44:09;;;;;;;12.63;11.33;;;14.00;99.90;;;;;;5109803;28;20671;-37
2021/09/03 02:46:35;;;;;;;13.37;11.40;;;13.90;99.90;;;;;;5123423;27;20521;-37
2021/09/03 02:49:01;;;;;;;12.27;11.00;;;13.90;99.90;;;;;;5130422;27;20425;-37
2021/09/03 02:51:26;;;;;;;12.50;11.20;;;14.00;99.90;;;;;;5129672;27;20601;-37
2021/09/03 02:53:52;;;;;;;12.63;10.90;;;13.90;99.90;;;;;;5118335;27;20183;-37
2021/09/03 02:56:18;;;;;;;14.30;12.20;;;13.90;99.90;;;;;;5126262;27;20195;-37
2021/09/03 02:58:43;;;;;;;12.83;11.40;;;13.90;99.90;;;;;;5129849;27;20518;-37
2021/09/03 03:01:09;;;;;;;16.90;12.00;;;13.90;99.90;;;;;;5129939;27;20240;-37
2021/09/03 03:03:35;;;;;;;13.87;12.00;;;13.90;99.90;;;;;;5129631;27;20325;-37
2021/09/03 03:06:00;;;;;;;12.93;11.03;;;13.90;99.90;;;;;;5129372;27;20187;-37
2021/09/03 03:08:26;;;;;;;14.10;12.50;;;14.00;99.90;;;;;;5118332;27;20207;-37
2021/09/03 03:10:52;;;;;;;18.47;13.23;;;14.10;99.90;;;;;;5129547;27;20527;-37
2021/09/03 03:13:28;;;;;;;12.70;10.50;;;14.20;99.90;;;;;;5128958;27;20199;-37
2021/09/03 03:15:55;;;;;;;15.80;12.50;;;14.30;99.90;;;;;;5117202;27;20198;-37
2021/09/03 03:18:21;;;;;;;13.73;11.50;;;14.40;99.90;;;;;;5127646;27;20420;-37
2021/09/03 03:20:48;;;;;;;13.20;11.07;;;14.30;99.90;;;;;;5129706;27;20408;-37
2021/09/03 03:23:15;;;;;;;14.43;11.70;;;14.30;99.90;;;;;;5098035;27;20474;-37
2021/09/03 03:25:41;;;;;;;13.77;10.30;;;14.40;99.90;;;;;;5124095;27;20437;-37
2021/09/03 03:28:07;;;;;;;14.03;11.07;;;14.40;99.90;;;;;;5128999;27;20452;-37
2021/09/03 03:30:33;;;;;;;12.07;10.87;;;14.30;99.90;;;;;;5129442;27;20421;-37
2021/09/03 03:33:00;;;;;;;19.97;11.60;;;14.30;99.90;;;;;;5128600;27;20515;-37
2021/09/03 03:35:25;;;;;;;12.87;11.43;;;14.30;99.90;;;;;;5110675;27;20191;-37
2021/09/03 03:37:51;;;;;;;14.23;10.40;;;14.20;99.90;;;;;;5122515;27;20935;-36
2021/09/03 03:40:17;;;;;;;12.07;10.70;;;14.00;99.90;;;;;;5128932;27;20278;-37
2021/09/03 03:42:44;;;;;;;14.57;12.00;;;14.00;99.90;;;;;;5125392;27;20214;-37
2021/09/03 03:45:10;;;;;;;17.87;11.60;;;14.00;99.90;;;;;;5110645;27;20508;-37
2021/09/03 03:47:36;;;;;;;13.50;12.10;;;13.80;99.90;;;;;;5128777;27;20421;-37
2021/09/03 03:50:04;;;;;;;12.80;11.07;;;13.80;99.90;;;;;;5110294;27;20708;-37
2021/09/03 03:52:30;;;;;;;12.03;10.67;;;13.80;99.90;;;;;;5126059;27;20510;-37
2021/09/03 03:54:56;;;;;;;11.50;10.30;;;13.90;99.90;;;;;;5122382;27;20513;-37
2021/09/03 03:57:21;;;;;;;14.50;11.10;;;13.80;99.90;;;;;;5121076;27;20187;-37
2021/09/03 03:59:47;;;;;;;12.73;11.43;;;13.60;99.90;;;;;;5128647;27;20183;-37
2021/09/03 04:02:13;;;;;;;14.40;11.30;;;13.60;99.90;;;;;;5127905;27;20649;-37
2021/09/03 04:04:38;;;;;;;12.80;10.60;;;13.60;99.90;;;;;;5129028;27;20214;-37
2021/09/03 04:07:04;;;;;;;11.40;10.27;;;13.50;99.90;;;;;;5127440;27;20768;-37
2021/09/03 04:09:30;;;;;;;13.30;9.90;;;13.60;99.90;;;;;;5118697;27;20225;-37
2021/09/03 04:11:55;;;;;;;14.73;11.30;;;13.50;99.90;;;;;;5128239;27;20661;-37
2021/09/03 04:14:21;;;;;;;12.20;10.20;;;13.50;99.90;;;;;;5119004;27;20195;-37
2021/09/03 04:16:47;;;;;;;12.10;10.80;;;13.40;99.90;;;;;;5115981;27;20708;-37
2021/09/03 04:19:13;;;;;;;11.40;10.27;;;13.40;99.90;;;;;;5128493;27;20602;-37
2021/09/03 04:21:39;;;;;;;11.33;10.23;;;13.40;99.90;;;;;;5127717;27;20372;-37
2021/09/03 04:24:05;;;;;;;11.83;10.23;;;13.30;99.90;;;;;;5120292;27;20636;-37
2021/09/03 04:26:31;;;;;;;13.20;9.90;;;13.30;99.90;;;;;;5121560;27;20420;-37
2021/09/03 04:28:57;;;;;;;13.37;10.60;;;13.30;99.90;;;;;;5128819;27;20779;-37
2021/09/03 04:31:23;;;;;;;11.27;10.13;;;13.40;99.90;;;;;;5127738;27;20451;-37
2021/09/03 04:33:48;;;;;;;15.70;10.87;;;13.50;99.90;;;;;;5128216;27;20913;-37
2021/09/03 04:36:14;;;;;;;13.50;10.17;;;13.60;99.90;;;;;;5128025;27;20545;-37
2021/09/03 04:38:40;;;;;;;11.47;9.77;;;13.60;99.90;;;;;;5121900;27;20589;-37
2021/09/03 04:41:05;;;;;;;13.03;11.00;;;13.60;99.90;;;;;;5124021;27;20259;-37
2021/09/03 04:43:31;;;;;;;12.03;10.83;;;13.60;99.90;;;;;;5127433;27;20210;-37
2021/09/03 04:45:57;;;;;;;12.33;11.03;;;13.80;99.90;;;;;;5127422;27;20195;-37
2021/09/03 04:48:23;;;;;;;11.63;10.47;;;13.90;99.90;;;;;;5127546;27;20195;-37
2021/09/03 04:50:49;;;;;;;12.50;10.30;;;14.00;99.90;;;;;;5128040;27;20266;-36
2021/09/03 04:53:14;;;;;;;16.33;10.60;;;14.00;99.90;;;;;;5119654;27;20920;-37
2021/09/03 04:55:40;;;;;;;14.50;11.23;;;14.00;99.90;;;;;;5123343;27;20688;-37
2021/09/03 04:58:06;;;;;;;11.97;10.60;;;14.00;99.90;;;;;;5127403;27;20187;-36
2021/09/03 05:00:31;;;;;;;16.40;11.77;;;14.00;99.90;;;;;;5127481;27;20198;-37
2021/09/03 05:02:57;;;;;;;13.63;11.53;;;14.00;99.90;;;;;;5126982;27;20222;-37
2021/09/03 05:05:23;;;;;;;12.53;10.90;;;14.10;99.90;;;;;;5127704;27;20195;-38
2021/09/03 05:07:49;;;;;;;15.70;10.90;;;14.20;99.90;;;;;;5123529;27;20675;-37
2021/09/03 05:10:15;;;;;;;13.90;10.70;;;14.10;99.90;;;;;;5117520;27;20306;-36
2021/09/03 05:12:41;;;;;;;12.70;9.53;;;14.00;99.90;;;;;;5125274;27;20409;-37
2021/09/03 05:15:12;;;;;;;14.77;10.87;;;14.10;99.90;;;;;;5110992;27;20425;-37
2021/09/03 05:17:39;;;;;;;13.83;10.83;;;14.10;99.90;;;;;;5118055;27;20421;-37
2021/09/03 05:20:05;;;;;;;11.77;10.20;;;14.20;99.90;;;;;;5127472;27;20427;-37
2021/09/03 05:22:32;;;;;;;13.30;10.17;;;14.20;99.90;;;;;;5126614;27;20428;-37
2021/09/03 05:24:59;;;;;;;10.87;9.80;;;14.10;99.90;;;;;;5117185;27;20429;-37
2021/09/03 05:27:24;;;;;;;16.23;10.67;;;14.00;99.90;;;;;;5126653;27;20417;-37
2021/09/03 05:29:50;;;;;;;14.93;11.23;;;13.90;99.90;;;;;;5126801;27;20419;-37
2021/09/03 05:32:16;;;;;;;12.50;10.70;;;14.00;99.90;;;;;;5126730;27;20669;-37
2021/09/03 05:34:42;;;;;;;13.50;11.20;;;14.10;99.90;;;;;;5127003;27;20195;-37
2021/09/03 05:37:08;;;;;;;13.23;10.90;;;14.20;99.90;;;;;;5126825;27;20194;-36
2021/09/03 05:39:34;;;;;;;11.80;10.57;;;14.20;99.90;;;;;;5118096;27;20187;-37
2021/09/03 05:42:00;;;;;;;12.00;10.77;;;14.30;99.90;;;;;;5107965;27;20619;-37
2021/09/03 05:44:25;;;;;;;14.10;11.20;;;14.30;99.90;;;;;;5126376;27;20464;-37
2021/09/03 05:46:51;;;;;;;12.53;11.23;;;14.30;99.90;;;;;;5126837;27;20202;-37
2021/09/03 05:49:18;;;;;;;13.43;11.30;;;14.30;99.90;;;;;;5126832;27;20205;-37
2021/09/03 05:51:44;;;;;;;11.93;10.70;;;14.40;99.90;;;;;;5126390;27;20425;-36
2021/09/03 05:54:09;;;;;;;12.90;10.80;;;14.40;99.90;;;;;;5116376;28;20436;-37
2021/09/03 05:56:36;;;;;;;11.93;10.73;;;14.50;99.90;;;;;;5125800;27;20428;-37
2021/09/03 05:59:05;;;;;;;11.53;10.33;;;14.60;99.90;;;;;;5126355;27;20191;-37
2021/09/03 06:01:31;;;;;;;13.33;10.43;;;14.70;99.90;;;;;;5126190;28;21044;-36
2021/09/03 06:03:57;;;;;;;11.70;10.50;;;14.80;99.90;;;;;;5126908;28;20461;-37
2021/09/03 06:06:23;;;;;;;16.60;11.70;;;14.90;99.90;;;;;;5127529;27;20432;-37
2021/09/03 06:08:52;;;;;;;13.27;11.20;;;15.00;99.90;;;;;;5123107;27;20506;-37
2021/09/03 06:11:20;;;;;;;13.07;10.33;;;15.10;99.90;;;;;;5109380;27;20953;-37
2021/09/03 06:13:46;;;;;;;12.33;11.00;;;15.20;99.90;;;;;;5119394;27;20436;-37
2021/09/03 06:16:12;;;;;;;12.43;11.00;;;15.30;99.90;;;;;;5091179;28;20434;-37
2021/09/03 06:18:38;;;;;;;12.77;11.57;;;15.30;99.90;;;;;;5128537;27;20425;-37
2021/09/03 06:21:04;;;;;;;11.53;10.30;;;15.40;99.90;;;;;;5130693;27;20796;-36
2021/09/03 06:23:29;;;;;;;13.23;10.70;;;15.50;99.90;;;;;;5127326;27;20218;-36
2021/09/03 06:25:55;;;;;;;12.13;10.90;;;15.70;99.90;;;;;;5123264;27;20202;-37
2021/09/03 06:28:21;;;;;;;11.93;10.70;;;15.80;99.90;;;;;;5130146;27;20270;-37
2021/09/03 06:30:46;;;;;;;13.27;11.63;;;15.90;99.90;;;;;;5130458;27;20228;-37
2021/09/03 06:33:14;;;;;;;13.77;11.70;;;16.10;99.90;;;;;;5129914;27;20642;-36
2021/09/03 06:35:40;;;;;;;17.47;10.97;;;16.20;99.90;;;;;;5130392;27;20410;-37
2021/09/03 06:38:06;;;;;;;15.27;12.30;;;16.30;99.90;;;;;;5128945;27;20927;-37
2021/09/03 06:40:31;;;;;;;15.03;11.70;;;16.40;99.90;;;;;;5120864;27;20209;-37
2021/09/03 06:42:57;;;;;;;13.67;11.63;;;16.50;99.90;;;;;;5129746;27;20379;-36
2021/09/03 06:45:23;;;;;;;13.20;11.77;;;16.60;99.90;;;;;;5112181;27;20193;-36
2021/09/03 06:47:48;;;;;;;16.73;12.30;;;16.80;99.90;;;;;;5111148;27;20530;-37
2021/09/03 06:50:14;;;;;;;13.00;11.60;;;16.90;99.90;;;;;;5130349;27;20634;-37
2021/09/03 06:52:40;;;;;;;11.43;10.33;;;17.00;99.90;;;;;;5129513;27;20183;-37
2021/09/03 06:55:06;;;;;;;12.03;10.83;;;17.10;99.90;;;;;;5120399;27;20197;-37
2021/09/03 06:57:32;;;;;;;12.67;10.90;;;17.20;99.90;;;;;;5129090;27;20191;-37
2021/09/03 06:59:57;;;;;;;12.60;10.60;;;17.30;99.90;;;;;;5130116;27;20420;-36
2021/09/03 07:02:23;;;;;;;12.63;10.90;;;17.40;99.90;;;;;;5129462;27;20681;-37
2021/09/03 07:04:49;;;;;;;13.40;12.10;;;17.40;99.90;;;;;;5129957;27;20373;-37
2021/09/03 07:07:14;;;;;;;21.43;13.20;;;17.40;99.90;;;;;;5129327;27;20198;-37
2021/09/03 07:09:40;;;;;;;14.10;11.50;;;17.50;99.90;;;;;;5118828;27;20188;-37
2021/09/03 07:12:06;;;;;;;14.33;12.83;;;17.50;99.90;;;;;;5127504;27;20194;-36
2021/09/03 07:14:32;;;;;;;12.30;11.00;;;17.60;99.90;;;;;;5117241;27;20240;-36
2021/09/03 07:16:57;;;;;;;12.83;11.60;;;17.70;99.90;;;;;;5088855;27;20188;-37
2021/09/03 07:19:23;;;;;;;13.23;11.80;;;17.70;99.90;;;;;;5129950;27;20420;-37
2021/09/03 07:21:49;;;;;;;12.67;11.37;;;17.70;99.90;;;;;;5129133;27;20251;-37
2021/09/03 07:24:14;;;;;;;16.03;11.30;;;17.80;99.90;;;;;;5122581;27;20207;-36
2021/09/03 07:26:40;;;;;;;11.60;10.40;;;17.80;99.90;;;;;;5121270;27;20205;-37
2021/09/03 07:29:06;;;;;;;12.20;10.60;;;17.80;99.90;;;;;;5128641;27;20273;-37
2021/09/03 07:31:32;;;;;;;13.70;11.33;;;17.80;99.90;;;;;;5128999;27;20189;-36
2021/09/03 07:33:58;;;;;;;14.57;10.37;;;17.90;99.90;;;;;;5129239;27;20447;-37
2021/09/03 07:36:24;;;;;;;11.23;10.13;;;17.90;99.90;;;;;;5128956;27;20725;-36
2021/09/03 07:38:50;;;;;;;11.10;10.00;;;18.00;99.90;;;;;;5126678;27;20215;-37
2021/09/03 07:41:15;;;;;;;15.53;11.53;;;18.00;99.90;;;;;;5121238;27;20239;-37
2021/09/03 07:43:41;;;;;;;12.77;11.00;;;18.10;99.90;;;;;;5124042;27;20636;-37
2021/09/03 07:46:07;;;;;;;11.90;10.70;;;18.10;99.90;;;;;;5128991;27;20199;-37
2021/09/03 07:48:33;;;;;;;11.90;10.77;;;18.10;99.90;;;;;;5128770;27;20641;-37
2021/09/03 07:50:59;;;;;;;11.27;9.97;;;18.10;99.90;;;;;;5129542;27;20511;-37
2021/09/03 07:53:25;;;;;;;12.13;10.80;;;18.10;99.90;;;;;;5128804;27;20856;-37
2021/09/03 07:55:51;;;;;;;12.37;11.07;;;18.10;99.90;;;;;;5100630;27;20198;-37
2021/09/03 07:58:17;;;;;;;12.53;10.90;;;18.10;99.90;;;;;;5110584;27;20346;-37
2021/09/03 08:00:43;;;;;;;13.80;11.97;;;18.20;99.90;;;;;;5128722;27;20906;-37
2021/09/03 08:03:09;;;;;;;14.33;11.60;;;18.20;99.90;;;;;;5128685;27;20215;-37
2021/09/03 08:05:35;;;;;;;13.40;10.90;;;18.20;99.90;;;;;;5128558;27;20465;-37
2021/09/03 08:08:04;;;;;;;13.50;10.87;;;18.30;99.90;;;;;;5128414;27;20214;-37
2021/09/03 08:10:32;;;;;;;11.70;10.60;;;18.30;99.90;;;;;;5100901;27;20547;-37
2021/09/03 08:13:03;;;;;;;12.20;11.00;;;18.40;99.90;;;;;;5128287;27;20446;-37
2021/09/03 08:15:30;;;;;;;12.87;11.47;;;18.50;99.90;;;;;;5108190;28;20826;-37
2021/09/03 08:17:56;;;;;;;12.77;10.77;;;18.60;99.90;;;;;;5111565;27;20425;-38
2021/09/03 08:20:22;;;;;;;11.67;10.47;;;18.70;99.90;;;;;;5128088;27;20440;-37
2021/09/03 08:22:50;;;;;;;12.43;11.00;;;18.70;99.90;;;;;;5127603;27;20432;-37
2021/09/03 08:25:16;;;;;;;12.60;11.20;;;18.70;99.90;;;;;;5104008;27;20433;-37
2021/09/03 08:27:41;;;;;;;17.73;11.47;;;18.70;99.90;;;;;;5127788;27;20424;-38
2021/09/03 08:30:07;;;;;;;11.77;10.53;;;18.70;99.90;;;;;;5123282;27;20399;-37
2021/09/03 08:32:33;;;;;;;13.90;12.37;;;18.80;99.90;;;;;;5127652;27;20187;-37
2021/09/03 08:34:59;;;;;;;14.90;11.77;;;18.80;99.90;;;;;;5128222;27;20953;-37
2021/09/03 08:37:25;;;;;;;12.30;11.00;;;18.90;99.90;;;;;;5127248;27;20961;-37
2021/09/03 08:39:51;;;;;;;15.37;11.90;;;18.90;99.90;;;;;;5120561;27;20514;-37
2021/09/03 08:42:17;;;;;;;12.90;9.80;;;18.90;99.90;;;;;;5124233;27;20449;-37
2021/09/03 08:44:44;;;;;;;14.60;11.20;;;19.00;99.90;;;;;;5119939;27;20456;-37
2021/09/03 08:47:11;;;;;;;11.93;10.73;;;19.00;99.90;;;;;;5127808;27;20465;-37
2021/09/03 08:49:37;;;;;;;13.37;9.90;;;19.10;99.90;;;;;;5127763;27;20431;-37
2021/09/03 08:52:03;;;;;;;12.33;9.80;;;19.20;99.90;;;;;;5127177;27;20417;-37
2021/09/03 08:54:28;;;;;;;11.23;9.40;;;19.30;99.90;;;;;;5125076;27;20452;-37
2021/09/03 08:56:54;;;;;;;11.23;10.13;;;19.30;99.90;;;;;;5120668;27;20861;-37
2021/09/03 08:59:20;;;;;;;13.23;11.47;;;19.40;99.90;;;;;;5125004;27;20187;-37
2021/09/03 09:02:09;;;;;;;12.63;9.57;;;19.50;99.90;;;;;;5127238;27;20198;-37
2021/09/03 09:04:42;;;;;;;11.87;10.17;;;19.60;99.90;;;;;;5127344;27;20303;-37
2021/09/03 09:07:09;;;;;;;12.00;10.40;;;19.60;99.90;;;;;;5127317;27;21075;-37
2021/09/03 09:09:41;;;;;;;11.67;10.47;;;19.80;99.90;;;;;;5124276;27;20434;-37
2021/09/03 09:12:11;;;;;;;11.43;9.67;;;19.90;99.90;;;;;;5117104;27;20416;-37
2021/09/03 09:15:08;;;;;;;13.73;10.00;;;19.90;99.90;;;;;;5126406;27;20648;-37
2021/09/03 09:17:42;;;;;;;15.43;11.03;;;20.00;99.90;;;;;;5115596;27;20436;-37
2021/09/03 09:20:10;;;;;;;12.17;10.27;;;20.10;99.90;;;;;;5127183;27;20450;-37
2021/09/03 09:22:53;;;;;;;11.73;9.93;;;20.20;99.90;;;;;;5126424;27;20531;-36
2021/09/03 09:25:32;;;;;;;13.50;9.87;;;20.30;99.90;;;;;;5119428;27;20466;-37
2021/09/03 09:28:18;;;;;;;10.73;9.57;;;20.30;99.90;;;;;;5122700;27;20793;-36
2021/09/03 09:30:44;;;;;;;14.63;9.40;;;20.40;99.90;;;;;;5124897;27;20416;-36
2021/09/03 09:33:17;;;;;;;10.60;9.37;;;20.50;99.90;;;;;;5126486;27;20428;-37
2021/09/03 09:35:51;;;;;;;11.07;9.20;;;20.60;99.90;;;;;;5126599;27;20471;-37
2021/09/03 09:38:24;;;;;;;10.90;9.80;;;20.80;99.90;;;;;;5126909;27;20415;-38
2021/09/03 09:40:56;;;;;;;11.03;8.83;;;20.80;99.90;;;;;;5117026;27;20469;-36
2021/09/03 09:43:27;;;;;;;11.27;9.87;;;21.00;99.90;;;;;;5126007;27;21039;-37
2021/09/03 09:46:15;;;;;;;12.47;9.30;;;21.10;99.90;;;;;;5126662;27;20456;-37
2021/09/03 09:48:50;;;;;;;11.33;10.23;;;21.10;99.90;;;;;;5126857;27;20748;-37
2021/09/03 09:51:42;;;;;;;12.33;11.00;;;21.30;99.90;;;;;;5113242;27;20868;-38
2021/09/03 09:54:23;;;;;;;12.53;9.50;;;21.40;99.90;;;;;;5126784;27;20427;-37
2021/09/03 09:56:54;;;;;;;10.60;9.50;;;21.40;99.90;;;;;;5115440;27;20428;-37
2021/09/03 09:59:22;;;;;;;10.80;9.10;;;21.50;99.90;;;;;;5123743;27;21017;-37
2021/09/03 10:01:52;;;;;;;10.77;9.50;;;21.60;99.90;;;;;;5107882;28;20427;-37
2021/09/03 10:04:23;;;;;;;11.63;10.33;;;21.70;99.90;;;;;;5126563;28;20515;-37
2021/09/03 10:06:51;;;;;;;10.80;9.17;;;21.80;99.90;;;;;;5126594;28;20658;-37
2021/09/03 10:09:19;;;;;;;11.00;9.77;;;21.90;99.90;;;;;;5126729;28;20502;-37
2021/09/03 10:11:48;;;;;;;10.93;9.20;;;21.90;99.90;;;;;;5113762;28;20989;-37
2021/09/03 10:14:17;;;;;;;9.87;8.87;;;21.90;99.90;;;;;;5126325;28;21053;-37
2021/09/03 10:16:47;;;;;;;11.70;9.70;;;22.00;99.90;;;;;;5124997;28;20492;-37
2021/09/03 10:19:16;;;;;;;10.20;8.90;;;22.10;99.90;;;;;;5126101;28;20428;-36
2021/09/03 10:21:42;;;;;;;11.40;9.23;;;22.10;99.90;;;;;;5125866;28;20505;-36
2021/09/03 10:24:14;;;;;;;10.67;9.57;;;22.20;99.90;;;;;;5126376;28;20464;-36
2021/09/03 10:26:48;;;;;;;10.87;8.70;;;22.30;99.90;;;;;;5114699;28;20468;-36
2021/09/03 10:29:26;;;;;;;10.53;8.80;;;22.40;99.90;;;;;;5126112;28;20778;-36
2021/09/03 10:32:19;;;;;;;10.07;9.07;;;22.40;99.90;;;;;;5125719;28;20413;-37
2021/09/03 10:34:53;;;;;;;10.07;8.97;;;22.50;99.90;;;;;;5116088;28;20493;-37
2021/09/03 10:37:18;;;;;;;9.37;8.50;;;22.60;99.90;;;;;;5126018;28;20432;-37
2021/09/03 10:39:47;;;;;;;9.60;8.60;;;22.70;99.90;;;;;;5126007;28;20473;-37
2021/09/03 10:42:38;;;;;;;9.97;8.97;;;22.70;99.90;;;;;;5118933;28;20187;-37
2021/09/03 10:45:09;;;;;;;11.27;8.03;;;22.80;99.90;;;;;;5121265;28;20806;-37
2021/09/03 10:47:42;;;;;;;10.10;8.67;;;22.80;99.90;;;;;;5125944;28;20416;-36
2021/09/03 10:50:30;;;;;;;9.03;7.50;;;22.80;99.90;;;;;;5126300;28;20415;-37
2021/09/03 10:53:20;;;;;;;9.33;7.67;;;22.90;99.90;;;;;;5128080;27;20475;-38
2021/09/03 10:55:58;;;;;;;9.33;8.53;;;22.90;99.90;;;;;;5123910;27;20435;-36
2021/09/03 10:58:36;;;;;;;9.17;7.23;;;22.90;99.90;;;;;;5127880;27;20419;-36
2021/09/03 11:01:11;;;;;;;8.77;7.87;;;23.00;99.90;;;;;;5123811;27;21165;-37
2021/09/03 11:03:43;;;;;;;10.73;8.83;;;23.10;99.90;;;;;;5129474;27;20462;-37
2021/09/03 11:06:15;;;;;;;9.07;8.20;;;23.20;99.90;;;;;;5129791;27;20420;-36
2021/09/03 11:08:43;;;;;;;9.00;8.10;;;23.20;99.90;;;;;;5129506;27;20823;-36
2021/09/03 11:11:26;;;;;;;9.40;8.50;;;23.20;99.90;;;;;;5121541;27;20770;-37
2021/09/03 11:14:08;;;;;;;9.60;8.60;;;23.30;99.90;;;;;;5127893;27;20926;-37
2021/09/03 11:16:43;;;;;;;9.70;8.70;;;23.30;99.90;;;;;;5128465;27;20454;-37
2021/09/03 11:19:19;;;;;;;9.03;8.10;;;23.40;99.90;;;;;;5129534;27;20583;-36
2021/09/03 11:21:58;;;;;;;9.27;7.97;;;23.40;99.90;;;;;;5129572;27;20493;-36
2021/09/03 11:24:32;;;;;;;11.00;8.40;;;23.50;99.90;;;;;;5129484;27;20559;-36
2021/09/03 11:27:01;;;;;;;9.53;8.00;;;23.50;99.90;;;;;;5116184;27;20424;-36
2021/09/03 11:29:30;;;;;;;8.13;7.33;;;23.60;99.90;;;;;;5126703;27;20759;-37
2021/09/03 11:32:07;;;;;;;10.60;8.43;;;23.60;99.90;;;;;;5128905;27;20580;-37
2021/09/03 11:34:42;;;;;;;9.93;8.53;;;23.60;99.90;;;;;;5129220;27;20755;-37
2021/09/03 11:37:07;;;;;;;11.00;9.23;;;23.70;99.90;;;;;;5129288;27;20538;-36
2021/09/03 11:39:35;;;;;;;9.00;8.20;;;23.70;99.90;;;;;;5128831;27;21138;-36
2021/09/03 11:42:01;;;;;;;9.67;8.67;;;23.80;99.90;;;;;;5117518;27;20184;-37
2021/09/03 11:44:27;;;;;;;10.70;7.83;;;23.80;99.90;;;;;;5126874;27;20504;-36
2021/09/03 11:46:53;;;;;;;8.67;7.87;;;24.00;99.90;;;;;;5128416;27;20604;-37
2021/09/03 11:49:22;;;;;;;9.20;8.30;;;24.00;99.90;;;;;;5128953;27;20431;-37
2021/09/03 11:52:05;;;;;;;9.30;8.37;;;24.00;99.90;;;;;;5128968;27;20175;-36
2021/09/03 11:54:31;;;;;;;8.67;7.77;;;24.10;99.90;;;;;;5129178;27;20736;-36
2021/09/03 11:56:58;;;;;;;9.10;8.30;;;24.10;99.90;;;;;;5118016;27;20429;-36
2021/09/03 11:59:24;;;;;;;9.00;7.70;;;24.10;99.90;;;;;;5128271;27;20189;-37
2021/09/03 12:02:05;;;;;;;12.30;8.47;;;24.00;99.90;;;;;;5128868;27;20861;-37
2021/09/03 12:04:31;;;;;;;10.40;8.23;;;23.90;99.90;;;;;;5128619;27;20224;-36
2021/09/03 12:06:57;;;;;;;9.10;8.03;;;23.90;99.90;;;;;;5128210;27;20416;-37
2021/09/03 12:09:35;;;;;;;9.50;8.57;;;23.90;99.90;;;;;;5128523;27;20409;-36
2021/09/03 12:12:01;;;;;;;11.87;8.17;;;23.90;99.90;;;;;;5118371;27;20702;-36
2021/09/03 12:14:27;;;;;;;9.00;8.10;;;23.90;99.90;;;;;;5126666;27;20433;-36
2021/09/03 12:16:53;;;;;;;9.70;8.90;;;24.00;99.90;;;;;;5127274;27;20681;-36
2021/09/03 12:19:23;;;;;;;8.80;8.00;;;24.00;99.90;;;;;;5128248;27;20515;-36
2021/09/03 12:21:49;;;;;;;9.47;8.57;;;23.90;99.90;;;;;;5127867;27;20220;-36
2021/09/03 12:24:15;;;;;;;9.37;8.43;;;23.90;99.90;;;;;;5109657;27;20453;-37
2021/09/03 12:26:50;;;;;;;9.40;7.93;;;23.90;99.90;;;;;;5122700;27;20571;-37
2021/09/03 12:29:29;;;;;;;9.73;8.83;;;23.80;99.90;;;;;;5124758;27;20182;-36
2021/09/03 12:32:00;;;;;;;9.27;8.37;;;23.80;99.90;;;;;;5123876;27;20417;-36
2021/09/03 12:34:28;;;;;;;9.00;8.10;;;23.80;99.90;;;;;;5127885;27;20417;-37